createdAt,value
2022-07-31T00:01:13.524Z,17.80
2022-07-31T00:03:45.357Z,17.80
2022-07-31T00:06:19.334Z,17.80
2022-07-31T00:08:51.063Z,17.80
2022-07-31T00:11:23.079Z,17.70
2022-07-31T00:13:56.480Z,17.70
2022-07-31T00:16:28.731Z,17.60
2022-07-31T00:19:00.537Z,17.50
2022-07-31T00:21:32.305Z,17.40
2022-07-31T00:24:04.411Z,17.30
2022-07-31T00:26:36.127Z,17.30
2022-07-31T00:29:07.882Z,17.20
2022-07-31T00:31:39.572Z,17.20
2022-07-31T00:34:11.402Z,17.20
2022-07-31T00:36:43.961Z,17.20
2022-07-31T00:39:15.872Z,17.10
2022-07-31T00:41:47.722Z,17.10
2022-07-31T00:44:21.364Z,17.00
2022-07-31T00:46:53.252Z,17.10
2022-07-31T00:49:25.100Z,17.20
2022-07-31T00:51:56.885Z,17.20
2022-07-31T00:54:28.620Z,17.30
2022-07-31T00:57:00.764Z,17.30
2022-07-31T00:59:33.109Z,17.30
2022-07-31T01:02:04.952Z,17.20
2022-07-31T01:04:36.734Z,17.10
2022-07-31T01:07:13.359Z,17.10
2022-07-31T01:09:48.286Z,17.10
2022-07-31T01:12:29.582Z,17.20
2022-07-31T01:15:05.290Z,17.10
2022-07-31T01:17:39.200Z,17.20
2022-07-31T01:20:12.063Z,17.10
2022-07-31T01:23:07.226Z,17.10
2022-07-31T01:25:58.711Z,17.10
2022-07-31T01:29:03.208Z,17.10
2022-07-31T01:31:56.871Z,17.20
2022-07-31T01:34:34.021Z,17.20
2022-07-31T01:37:17.423Z,17.10
2022-07-31T01:40:07.436Z,17.00
2022-07-31T01:42:43.186Z,17.00
2022-07-31T01:45:17.051Z,17.00
2022-07-31T01:47:51.137Z,17.00
2022-07-31T01:50:42.370Z,17.00
2022-07-31T01:53:20.022Z,16.90
2022-07-31T01:56:03.595Z,16.80
2022-07-31T01:58:42.809Z,16.70
2022-07-31T02:01:35.170Z,16.20
2022-07-31T02:04:10.353Z,16.70
2022-07-31T02:06:46.089Z,16.70
2022-07-31T02:09:19.884Z,16.70
2022-07-31T02:11:53.342Z,16.70
2022-07-31T02:14:28.923Z,16.60
2022-07-31T02:17:02.095Z,16.60
2022-07-31T02:19:59.752Z,16.70
2022-07-31T02:22:33.218Z,16.60
2022-07-31T02:25:08.076Z,16.60
2022-07-31T02:27:58.173Z,16.60
2022-07-31T02:30:38.365Z,16.60
2022-07-31T02:33:25.650Z,16.60
2022-07-31T02:35:58.989Z,16.60
2022-07-31T02:38:33.510Z,16.60
2022-07-31T02:41:06.199Z,16.50
2022-07-31T02:43:39.254Z,16.40
2022-07-31T02:46:21.248Z,16.30
2022-07-31T02:48:53.084Z,16.10
2022-07-31T02:51:28.457Z,15.90
2022-07-31T02:54:10.573Z,15.70
2022-07-31T02:56:43.120Z,15.60
2022-07-31T02:59:14.821Z,15.60
2022-07-31T03:02:02.021Z,15.70
2022-07-31T03:04:35.954Z,15.80
2022-07-31T03:07:07.725Z,15.70
2022-07-31T03:09:40.051Z,15.60
2022-07-31T03:12:50.990Z,15.70
2022-07-31T03:15:25.770Z,15.70
2022-07-31T03:17:58.949Z,15.70
2022-07-31T03:20:40.034Z,15.70
2022-07-31T03:23:13.237Z,15.70
2022-07-31T03:25:58.242Z,15.60
2022-07-31T03:28:30.009Z,15.50
2022-07-31T03:31:02.413Z,15.40
2022-07-31T03:33:35.897Z,15.40
2022-07-31T03:36:09.453Z,15.50
2022-07-31T03:38:43.937Z,15.50
2022-07-31T03:41:29.630Z,15.50
2022-07-31T03:44:02.350Z,15.60
2022-07-31T03:46:34.997Z,15.50
2022-07-31T03:49:08.332Z,15.50
2022-07-31T03:51:40.129Z,15.50
2022-07-31T03:54:12.129Z,15.50
2022-07-31T03:56:50.177Z,15.50
2022-07-31T03:59:24.035Z,15.50
2022-07-31T04:01:58.331Z,15.40
2022-07-31T04:04:53.375Z,15.50
2022-07-31T04:07:25.366Z,15.60
2022-07-31T04:09:57.198Z,15.70
2022-07-31T04:12:29.051Z,15.90
2022-07-31T04:15:00.818Z,15.90
2022-07-31T04:17:33.889Z,15.80
2022-07-31T04:20:06.842Z,15.90
2022-07-31T04:22:38.805Z,15.90
2022-07-31T04:25:16.329Z,15.90
2022-07-31T04:28:09.147Z,15.80
2022-07-31T04:30:40.960Z,15.70
2022-07-31T04:33:12.802Z,15.60
2022-07-31T04:35:45.038Z,15.60
2022-07-31T04:38:17.001Z,15.60
2022-07-31T04:40:50.671Z,15.60
2022-07-31T04:43:22.406Z,15.70
2022-07-31T04:45:54.239Z,16.00
2022-07-31T04:48:25.971Z,16.90
2022-07-31T04:50:57.746Z,18.50
2022-07-31T04:53:29.469Z,20.20
2022-07-31T04:56:20.733Z,21.80
2022-07-31T04:58:52.575Z,23.10
2022-07-31T05:01:24.589Z,24.10
2022-07-31T05:03:56.625Z,24.80
2022-07-31T05:06:42.262Z,25.30
2022-07-31T05:09:25.613Z,25.60
2022-07-31T05:12:02.955Z,25.80
2022-07-31T05:14:35.721Z,25.60
2022-07-31T05:17:07.429Z,25.40
2022-07-31T05:19:57.783Z,25.20
2022-07-31T05:23:01.867Z,25.00
2022-07-31T05:25:45.573Z,24.80
2022-07-31T05:28:17.334Z,24.80
2022-07-31T05:31:01.808Z,24.50
2022-07-31T05:33:33.770Z,23.70
2022-07-31T05:36:06.508Z,23.00
2022-07-31T05:38:39.330Z,22.70
2022-07-31T05:41:33.938Z,22.70
2022-07-31T05:44:05.874Z,22.60
2022-07-31T05:49:26.627Z,22.90
2022-07-31T05:51:58.805Z,22.90
2022-07-31T05:54:32.485Z,22.70
2022-07-31T05:57:36.515Z,22.30
2022-07-31T06:00:09.305Z,22.00
2022-07-31T06:02:46.313Z,21.70
2022-07-31T06:05:46.712Z,21.40
2022-07-31T06:08:18.459Z,21.10
2022-07-31T06:10:52.899Z,20.80
2022-07-31T06:13:26.889Z,20.60
2022-07-31T06:15:58.883Z,20.50
2022-07-31T06:18:31.335Z,20.30
2022-07-31T06:21:03.192Z,20.20
2022-07-31T06:23:34.970Z,20.20
2022-07-31T06:26:20.219Z,20.20
2022-07-31T06:28:55.993Z,20.30
2022-07-31T06:31:27.755Z,20.40
2022-07-31T06:34:01.918Z,20.50
2022-07-31T06:36:42.525Z,20.40
2022-07-31T06:39:19.289Z,20.30
2022-07-31T06:42:09.747Z,20.30
2022-07-31T06:44:46.410Z,20.20
2022-07-31T06:47:37.167Z,20.30
2022-07-31T06:50:11.728Z,20.30
2022-07-31T06:52:46.020Z,20.30
2022-07-31T06:55:18.113Z,20.30
2022-07-31T06:57:49.903Z,20.40
2022-07-31T07:00:21.914Z,20.50
2022-07-31T07:02:56.165Z,20.70
2022-07-31T07:05:27.992Z,20.80
2022-07-31T07:08:01.306Z,20.90
2022-07-31T07:10:33.339Z,20.90
2022-07-31T07:13:05.050Z,20.90
2022-07-31T07:15:40.741Z,21.00
2022-07-31T07:18:12.857Z,21.10
2022-07-31T07:20:56.378Z,21.10
2022-07-31T07:23:30.398Z,21.10
2022-07-31T07:26:20.859Z,21.30
2022-07-31T07:28:53.599Z,21.50
2022-07-31T07:31:25.378Z,21.70
2022-07-31T07:33:57.131Z,21.80
2022-07-31T07:36:29.267Z,21.90
2022-07-31T07:39:04.633Z,21.90
2022-07-31T07:41:38.725Z,22.10
2022-07-31T07:44:10.628Z,22.20
2022-07-31T07:46:42.734Z,22.30
2022-07-31T07:49:18.196Z,22.60
2022-07-31T07:52:10.160Z,22.70
2022-07-31T07:54:45.022Z,22.60
2022-07-31T07:57:37.338Z,22.70
2022-07-31T08:00:27.668Z,23.10
2022-07-31T08:03:50.311Z,23.30
2022-07-31T08:05:56.520Z,23.50
2022-07-31T08:08:28.529Z,23.70
2022-07-31T08:11:29.317Z,23.80
2022-07-31T08:14:15.098Z,23.70
2022-07-31T08:17:16.725Z,23.80
2022-07-31T08:19:51.303Z,23.70
2022-07-31T08:22:23.456Z,23.60
2022-07-31T08:24:56.849Z,23.80
2022-07-31T08:27:38.041Z,24.10
2022-07-31T08:30:12.458Z,24.20
2022-07-31T08:32:44.227Z,24.20
2022-07-31T08:35:25.271Z,24.30
2022-07-31T08:38:03.497Z,24.50
2022-07-31T08:40:43.721Z,24.80
2022-07-31T08:44:00.411Z,25.00
2022-07-31T08:46:08.835Z,25.20
2022-07-31T08:48:45.223Z,25.20
2022-07-31T08:51:17.675Z,25.20
2022-07-31T08:54:10.586Z,25.10
2022-07-31T08:56:43.162Z,24.80
2022-07-31T08:59:17.427Z,24.70
2022-07-31T09:01:49.339Z,25.00
2022-07-31T09:04:21.225Z,25.20
2022-07-31T09:06:53.450Z,25.20
2022-07-31T09:09:26.184Z,25.30
2022-07-31T09:12:32.474Z,25.60
2022-07-31T09:15:30.865Z,25.90
2022-07-31T09:18:19.968Z,26.00
2022-07-31T09:20:56.965Z,26.40
2022-07-31T09:23:30.124Z,26.10
2022-07-31T09:26:05.957Z,26.00
2022-07-31T09:28:40.903Z,26.00
2022-07-31T09:31:14.017Z,26.10
2022-07-31T09:34:26.260Z,26.30
2022-07-31T09:37:11.815Z,26.20
2022-07-31T09:40:04.344Z,26.10
2022-07-31T09:43:24.287Z,26.20
2022-07-31T09:46:01.173Z,26.60
2022-07-31T09:48:34.550Z,27.00
2022-07-31T09:51:08.347Z,27.20
2022-07-31T09:53:45.517Z,27.50
2022-07-31T09:56:44.783Z,27.70
2022-07-31T09:59:17.000Z,27.40
2022-07-31T10:01:50.053Z,27.20
2022-07-31T10:04:23.413Z,27.20
2022-07-31T10:06:56.889Z,27.20
2022-07-31T10:09:30.493Z,27.20
2022-07-31T10:12:20.594Z,27.10
2022-07-31T10:14:53.615Z,26.70
2022-07-31T10:17:33.788Z,26.40
2022-07-31T10:20:09.271Z,26.60
2022-07-31T10:23:15.540Z,26.90
2022-07-31T10:25:54.493Z,27.40
2022-07-31T10:28:29.576Z,27.70
2022-07-31T10:31:01.405Z,27.60
2022-07-31T10:33:44.005Z,27.10
2022-07-31T10:36:41.173Z,26.60
2022-07-31T10:40:03.793Z,26.20
2022-07-31T10:42:47.627Z,26.20
2022-07-31T10:45:19.863Z,26.50
2022-07-31T10:48:12.662Z,27.00
2022-07-31T10:51:06.045Z,27.30
2022-07-31T10:54:11.498Z,27.10
2022-07-31T10:57:02.288Z,27.10
2022-07-31T10:59:47.187Z,27.20
2022-07-31T11:02:39.333Z,26.90
2022-07-31T11:05:23.175Z,27.10
2022-07-31T11:08:11.705Z,27.50
2022-07-31T11:10:56.902Z,27.80
2022-07-31T11:13:50.280Z,28.00
2022-07-31T11:16:52.803Z,28.10
2022-07-31T11:19:44.841Z,28.10
2022-07-31T11:22:32.104Z,28.40
2022-07-31T11:25:05.035Z,28.40
2022-07-31T11:27:38.106Z,28.40
2022-07-31T11:30:13.379Z,28.50
2022-07-31T11:32:52.998Z,28.50
2022-07-31T11:35:30.981Z,28.40
2022-07-31T11:38:02.734Z,28.30
2022-07-31T11:40:37.950Z,28.50
2022-07-31T11:43:25.559Z,28.70
2022-07-31T11:45:58.335Z,28.90
2022-07-31T11:48:39.073Z,28.90
2022-07-31T11:51:21.639Z,29.00
2022-07-31T11:53:58.090Z,29.00
2022-07-31T11:56:30.127Z,29.00
2022-07-31T11:59:01.966Z,28.90
2022-07-31T12:01:33.969Z,29.00
2022-07-31T12:04:08.538Z,29.20
2022-07-31T12:06:40.886Z,29.30
2022-07-31T12:10:01.444Z,29.10
2022-07-31T12:12:05.316Z,29.00
2022-07-31T12:14:39.613Z,28.60
2022-07-31T12:17:20.829Z,28.60
2022-07-31T12:19:56.160Z,28.70
2022-07-31T12:22:29.678Z,28.80
2022-07-31T12:25:04.959Z,28.50
2022-07-31T12:27:39.610Z,28.70
2022-07-31T12:30:16.790Z,29.10
2022-07-31T12:32:48.589Z,29.20
2022-07-31T12:35:20.546Z,29.10
2022-07-31T12:37:53.854Z,28.90
2022-07-31T12:40:27.966Z,28.60
2022-07-31T12:43:00.364Z,28.50
2022-07-31T12:45:39.742Z,28.70
2022-07-31T12:48:11.470Z,28.90
2022-07-31T12:50:43.172Z,29.30
2022-07-31T12:53:14.904Z,29.50
2022-07-31T12:55:46.613Z,29.20
2022-07-31T12:58:18.343Z,28.90
2022-07-31T13:00:50.423Z,28.90
2022-07-31T13:03:22.166Z,29.00
2022-07-31T13:05:53.902Z,29.20
2022-07-31T13:08:25.675Z,29.30
2022-07-31T13:10:57.535Z,29.30
2022-07-31T13:13:29.320Z,29.30
2022-07-31T13:16:01.065Z,29.40
2022-07-31T13:18:33.988Z,29.30
2022-07-31T13:21:05.776Z,29.30
2022-07-31T13:23:37.595Z,29.40
2022-07-31T13:26:09.367Z,29.40
2022-07-31T13:28:41.077Z,29.40
2022-07-31T13:31:12.795Z,29.40
2022-07-31T13:33:44.871Z,29.10
2022-07-31T13:36:16.565Z,29.00
2022-07-31T13:38:48.363Z,28.80
2022-07-31T13:41:30.923Z,28.80
2022-07-31T13:44:03.681Z,28.80
2022-07-31T13:46:35.769Z,28.70
2022-07-31T13:49:11.614Z,28.60
2022-07-31T13:51:43.449Z,28.60
2022-07-31T13:54:16.401Z,28.70
2022-07-31T13:56:48.103Z,28.70
2022-07-31T13:59:20.210Z,28.80
2022-07-31T14:02:04.538Z,28.70
2022-07-31T14:04:38.475Z,28.60
2022-07-31T14:07:12.844Z,28.60
2022-07-31T14:09:54.647Z,28.50
2022-07-31T14:12:27.285Z,28.40
2022-07-31T14:14:59.049Z,28.50
2022-07-31T14:17:30.985Z,28.50
2022-07-31T14:20:02.946Z,28.50
2022-07-31T14:22:34.705Z,28.70
2022-07-31T14:25:06.750Z,28.80
2022-07-31T14:27:39.243Z,29.00
2022-07-31T14:30:11.750Z,29.20
2022-07-31T14:32:51.762Z,29.30
2022-07-31T14:35:23.511Z,29.30
2022-07-31T14:37:55.227Z,29.20
2022-07-31T14:40:30.448Z,29.20
2022-07-31T14:43:02.442Z,29.00
2022-07-31T14:45:42.905Z,29.10
2022-07-31T14:48:23.790Z,29.10
2022-07-31T14:50:55.606Z,29.10
2022-07-31T14:53:27.534Z,28.90
2022-07-31T14:56:03.591Z,28.50
2022-07-31T14:58:57.624Z,28.60
2022-07-31T15:01:30.909Z,28.80
2022-07-31T15:04:02.902Z,29.10
2022-07-31T15:06:53.674Z,29.10
2022-07-31T15:09:26.562Z,29.00
2022-07-31T15:12:01.085Z,29.20
2022-07-31T15:14:33.230Z,29.30
2022-07-31T15:17:05.209Z,29.30
2022-07-31T15:19:37.166Z,29.20
2022-07-31T15:22:16.269Z,29.30
2022-07-31T15:24:50.216Z,29.10
2022-07-31T15:27:22.285Z,28.90
2022-07-31T15:30:03.453Z,28.80
2022-07-31T15:32:39.215Z,28.60
2022-07-31T15:35:12.714Z,28.50
2022-07-31T15:37:45.426Z,28.40
2022-07-31T15:40:17.327Z,28.60
2022-07-31T15:42:49.835Z,28.70
2022-07-31T15:45:21.676Z,28.60
2022-07-31T15:47:53.414Z,28.40
2022-07-31T15:50:25.303Z,28.50
2022-07-31T15:52:57.036Z,28.50
2022-07-31T15:55:29.455Z,28.50
2022-07-31T15:58:01.173Z,28.50
2022-07-31T16:00:32.998Z,28.60
2022-07-31T16:03:04.849Z,28.70
2022-07-31T16:05:38.948Z,28.70
2022-07-31T16:08:30.685Z,28.60
2022-07-31T16:11:02.667Z,28.40
2022-07-31T16:13:36.353Z,28.40
2022-07-31T16:16:08.061Z,28.30
2022-07-31T16:18:39.819Z,28.30
2022-07-31T16:21:11.658Z,28.20
2022-07-31T16:23:43.729Z,28.10
2022-07-31T16:26:15.507Z,28.10
2022-07-31T16:28:50.983Z,28.00
2022-07-31T16:31:30.166Z,27.90
2022-07-31T16:34:02.761Z,27.90
2022-07-31T16:36:34.620Z,27.90
2022-07-31T16:39:19.826Z,27.80
2022-07-31T16:41:55.045Z,27.70
2022-07-31T16:44:27.078Z,27.50
2022-07-31T16:46:59.445Z,27.50
2022-07-31T16:49:36.024Z,29.10
2022-07-31T16:52:08.338Z,27.40
2022-07-31T16:54:41.441Z,27.30
2022-07-31T16:57:13.683Z,27.30
2022-07-31T16:59:57.407Z,27.30
2022-07-31T17:02:29.726Z,27.30
2022-07-31T17:05:01.596Z,27.30
2022-07-31T17:07:33.319Z,27.30
2022-07-31T17:10:05.437Z,27.20
2022-07-31T17:12:37.510Z,27.20
2022-07-31T17:15:09.977Z,27.10
2022-07-31T17:17:41.728Z,29.00
2022-07-31T17:20:13.698Z,27.30
2022-07-31T17:22:51.170Z,27.30
2022-07-31T17:25:26.167Z,27.20
2022-07-31T17:27:58.001Z,27.20
2022-07-31T17:30:29.795Z,27.30
2022-07-31T17:33:01.564Z,27.30
2022-07-31T17:35:34.288Z,27.30
2022-07-31T17:38:06.242Z,27.20
2022-07-31T17:40:45.150Z,27.20
2022-07-31T17:43:17.094Z,27.20
2022-07-31T17:46:09.338Z,27.20
2022-07-31T17:48:51.127Z,27.20
2022-07-31T17:51:23.054Z,27.20
2022-07-31T17:53:59.071Z,27.20
2022-07-31T17:56:31.445Z,27.10
2022-07-31T17:59:06.321Z,27.20
2022-07-31T18:01:38.102Z,27.10
2022-07-31T18:04:10.158Z,27.10
2022-07-31T18:06:43.276Z,27.00
2022-07-31T18:09:17.669Z,27.00
2022-07-31T18:11:50.453Z,27.00
2022-07-31T18:14:24.469Z,26.90
2022-07-31T18:16:56.673Z,26.90
2022-07-31T18:19:28.463Z,26.80
2022-07-31T18:22:00.378Z,26.80
2022-07-31T18:24:32.148Z,26.80
2022-07-31T18:27:04.076Z,26.70
2022-07-31T18:29:35.896Z,26.70
2022-07-31T18:32:09.318Z,26.60
2022-07-31T18:34:41.060Z,26.60
2022-07-31T18:37:12.787Z,26.60
2022-07-31T18:39:48.149Z,26.50
2022-07-31T18:42:23.950Z,26.50
2022-07-31T18:44:56.981Z,26.40
2022-07-31T18:47:30.118Z,26.40
2022-07-31T18:50:59.297Z,26.40
2022-07-31T18:52:53.577Z,26.30
2022-07-31T18:55:26.063Z,26.30
2022-07-31T18:57:58.511Z,26.20
2022-07-31T19:00:31.863Z,26.20
2022-07-31T19:03:04.434Z,26.10
2022-07-31T19:05:36.711Z,26.10
2022-07-31T19:08:08.439Z,26.00
2022-07-31T19:10:40.152Z,25.90
2022-07-31T19:13:18.879Z,25.90
2022-07-31T19:15:53.055Z,25.90
2022-07-31T19:18:28.698Z,25.80
2022-07-31T19:21:22.983Z,25.80
2022-07-31T19:23:52.502Z,25.70
2022-07-31T19:26:24.296Z,25.60
2022-07-31T19:28:56.739Z,25.60
2022-07-31T19:31:28.429Z,25.50
2022-07-31T19:34:00.253Z,25.50
2022-07-31T19:36:31.992Z,25.40
2022-07-31T19:39:03.867Z,25.40
2022-07-31T19:41:35.730Z,25.40
2022-07-31T19:44:08.236Z,25.30
2022-07-31T19:46:40.061Z,25.20
2022-07-31T19:49:12.361Z,25.20
2022-07-31T19:51:44.465Z,25.20
2022-07-31T19:54:16.224Z,25.10
2022-07-31T19:56:47.978Z,25.00
2022-07-31T19:59:19.771Z,25.00
2022-07-31T20:01:51.471Z,26.30
2022-07-31T20:04:23.274Z,24.90
2022-07-31T20:06:56.157Z,24.80
2022-07-31T20:09:27.899Z,24.80
2022-07-31T20:11:59.668Z,24.70
2022-07-31T20:14:31.445Z,24.70
2022-07-31T20:17:03.190Z,24.60
2022-07-31T20:19:35.076Z,24.60
2022-07-31T20:22:26.775Z,24.60
2022-07-31T20:24:58.515Z,24.60
2022-07-31T20:27:30.286Z,24.60
2022-07-31T20:30:02.951Z,24.50
2022-07-31T20:32:37.945Z,24.50
2022-07-31T20:35:33.030Z,25.70
2022-07-31T20:38:15.781Z,24.40
2022-07-31T20:40:53.353Z,24.40
2022-07-31T20:43:28.187Z,24.30
2022-07-31T20:45:59.941Z,24.30
2022-07-31T20:48:32.249Z,24.20
2022-07-31T20:51:05.250Z,24.20
2022-07-31T20:53:37.444Z,24.20
2022-07-31T20:56:09.212Z,24.20
2022-07-31T20:58:41.402Z,24.20
2022-07-31T21:01:14.906Z,24.10
2022-07-31T21:03:47.126Z,24.10
2022-07-31T21:06:20.909Z,24.10
2022-07-31T21:08:53.131Z,24.00
2022-07-31T21:11:31.660Z,24.00
2022-07-31T21:14:04.726Z,23.90
2022-07-31T21:16:36.449Z,23.90
2022-07-31T21:19:09.041Z,23.90
2022-07-31T21:21:42.118Z,23.80
2022-07-31T21:24:14.548Z,23.80
2022-07-31T21:26:46.563Z,23.70
2022-07-31T21:29:23.105Z,23.70
2022-07-31T21:31:55.251Z,23.70
2022-07-31T21:34:27.321Z,23.60
2022-07-31T21:37:00.422Z,23.50
2022-07-31T21:39:34.202Z,23.50
2022-07-31T21:42:06.841Z,23.40
2022-07-31T21:44:39.034Z,23.40
2022-07-31T21:47:14.801Z,23.40
2022-07-31T21:49:55.267Z,23.30
2022-07-31T21:52:29.987Z,23.20
2022-07-31T21:55:04.052Z,23.20
2022-07-31T21:57:58.794Z,23.10
2022-07-31T22:00:28.458Z,23.10
2022-07-31T22:03:03.284Z,23.00
2022-07-31T22:05:53.458Z,22.90
2022-07-31T22:08:25.176Z,22.80
2022-07-31T22:10:56.936Z,22.70
2022-07-31T22:13:28.827Z,21.30
2022-07-31T22:16:01.216Z,22.50
2022-07-31T22:18:36.136Z,22.50
2022-07-31T22:21:08.983Z,22.50
2022-07-31T22:23:40.869Z,22.40
2022-07-31T22:26:14.523Z,22.40
2022-07-31T22:28:47.477Z,22.40
2022-07-31T22:31:19.418Z,22.30
2022-07-31T22:33:51.760Z,22.30
2022-07-31T22:36:24.510Z,22.30
2022-07-31T22:38:57.225Z,22.30
2022-07-31T22:41:29.030Z,22.20
2022-07-31T22:44:12.690Z,22.20
2022-07-31T22:46:48.462Z,22.20
2022-07-31T22:49:21.244Z,22.10
2022-07-31T22:51:53.031Z,22.10
2022-07-31T22:54:24.782Z,22.10
2022-07-31T22:56:56.529Z,22.00
2022-07-31T22:59:28.463Z,22.00
2022-07-31T23:02:04.511Z,22.00
2022-07-31T23:04:36.707Z,22.00
2022-07-31T23:07:09.245Z,22.00
2022-07-31T23:09:40.971Z,22.00
2022-07-31T23:12:12.830Z,22.00
2022-07-31T23:14:44.750Z,22.00
2022-07-31T23:17:22.939Z,22.10
2022-07-31T23:19:55.823Z,22.00
2022-07-31T23:22:33.809Z,22.00
2022-07-31T23:25:07.067Z,22.00
2022-07-31T23:27:38.800Z,22.00
2022-07-31T23:30:10.937Z,22.00
2022-07-31T23:32:42.784Z,22.00
2022-07-31T23:35:14.620Z,22.00
2022-07-31T23:37:47.714Z,22.00
2022-07-31T23:40:19.557Z,22.00
2022-07-31T23:42:51.323Z,22.00
2022-07-31T23:45:23.671Z,22.10
2022-07-31T23:47:58.841Z,22.10
2022-07-31T23:50:31.046Z,22.10
2022-07-31T23:53:02.961Z,22.20
2022-07-31T23:55:35.355Z,22.20
2022-07-31T23:58:13.490Z,22.20
